Latest Weather Observations for Fort Denison

IDN60801

Issued at 12:22 am EST Thursday 22 April 2021 (issued every 10 minutes, with the page automatically refreshed every 10 minutes)

About weather observations | Map of weather stations | Latest weather observations for NSW | Other Formats
Station Details ID: 066022 Name: FORT DENISON Lat: -33.86 Lon: 151.23 Height: 5.0 m
Data from the previous 72 hours. | See also: Recent months for locations in New South Wales
Date/Time
EST
Temp
°C
App
Temp
°C
Dew
Point
°C
Rel
Hum
%
Delta-T
°C
Wind Press
QNH
hPa
Press
MSL
hPa
Rain since
9am
mm
Dir  Spd
km/h
Gust
km/h
Spd
kts
Gust
kts
22/12:00am - - - - - W 19 22 10 12 - - -
 
Date/Time
EST
Temp
°C
App
Temp
°C
Dew
Point
°C
Rel
Hum
%
Delta-T
°C
Wind Press
QNH
hPa
Press
MSL
hPa
Rain since
9am
mm
Dir  Spd
km/h
Gust
km/h
Spd
kts
Gust
kts
21/11:30pm - - - - - W 17 20 9 11 - - -
21/11:00pm - - - - - WNW 17 20 9 11 - - -
21/10:30pm - - - - - WNW 13 17 7 9 - - -
21/10:00pm - - - - - W 11 17 6 9 - - -
21/09:30pm - - - - - SSW 7 11 4 6 - - -
21/09:00pm - - - - - S 7 13 4 7 - - -
21/08:30pm - - - - - S 9 15 5 8 - - -
21/08:00pm - - - - - SSE 11 15 6 8 - - -
21/07:30pm - - - - - SSW 7 13 4 7 - - -
21/07:00pm - - - - - SSW 9 15 5 8 - - -
21/06:30pm - - - - - S 13 17 7 9 - - -
21/06:00pm - - - - - SSE 11 15 6 8 - - -
21/05:30pm - - - - - S 9 13 5 7 - - -
21/05:00pm - - - - - S 17 24 9 13 - - -
21/04:30pm - - - - - S 19 26 10 14 - - -
21/04:00pm - - - - - S 17 24 9 13 - - -
21/03:30pm - - - - - S 17 24 9 13 - - -
21/03:00pm - - - - - SSE 22 32 12 17 - - -
21/02:30pm - - - - - S 15 28 8 15 - - -
21/02:00pm - - - - - SSW 17 30 9 16 - - -
21/01:30pm - - - - - S 17 30 9 16 - - -
21/01:00pm - - - - - S 19 26 10 14 - - -
21/12:30pm - - - - - SSE 20 30 11 16 - - -
21/12:00pm - - - - - SSW 15 28 8 15 - - -
21/11:30am - - - - - SW 17 30 9 16 - - -
21/11:00am - - - - - SSW 17 26 9 14 - - -
21/10:30am - - - - - SSW 15 26 8 14 - - -
21/10:00am - - - - - WSW 20 37 11 20 - - -
21/09:30am - - - - - SW 22 33 12 18 - - -
21/09:00am - - - - - SW 20 37 11 20 - - -
21/08:30am - - - - - WSW 19 32 10 17 - - -
21/08:00am - - - - - SW 20 41 11 22 - - -
21/07:30am - - - - - W 19 32 10 17 - - -
21/07:00am - - - - - SW 11 24 6 13 - - -
21/06:30am - - - - - SW 20 41 11 22 - - -
21/06:00am - - - - - SW 13 24 7 13 - - -
21/05:30am - - - - - W 22 32 12 17 - - -
21/05:00am - - - - - WSW 22 35 12 19 - - -
21/04:30am - - - - - W 17 24 9 13 - - -
21/04:00am - - - - - WNW 17 24 9 13 - - -
21/03:30am - - - - - WSW 13 20 7 11 - - -
21/03:00am - - - - - WSW 13 24 7 13 - - -
21/02:30am - - - - - SSW 13 24 7 13 - - -
21/02:00am - - - - - W 13 17 7 9 - - -
21/01:30am - - - - - WNW 13 17 7 9 - - -
21/01:00am - - - - - NNW 11 19 6 10 - - -
21/12:30am - - - - - NNW 7 11 4 6 - - -
21/12:00am - - - - - NNW 9 11 5 6 - - -
 
Date/Time
EST
Temp
°C
App
Temp
°C
Dew
Point
°C
Rel
Hum
%
Delta-T
°C
Wind Press
QNH
hPa
Press
MSL
hPa
Rain since
9am
mm
Dir  Spd
km/h
Gust
km/h
Spd
kts
Gust
kts
20/11:30pm - - - - - NNW 7 13 4 7 - - -
20/11:00pm - - - - - NW 6 17 3 9 - - -
20/10:30pm - - - - - NNE 6 9 3 5 - - -
20/10:00pm - - - - - WSW 4 6 2 3 - - -
20/09:30pm - - - - - WNW 11 13 6 7 - - -
20/09:00pm - - - - - WNW 4 7 2 4 - - -
20/08:30pm - - - - - W 6 7 3 4 - - -
20/08:00pm - - - - - NNW 7 9 4 5 - - -
20/07:30pm - - - - - WNW 9 11 5 6 - - -
20/07:00pm - - - - - NW 9 13 5 7 - - -
20/06:30pm - - - - - NNW 9 15 5 8 - - -
20/06:00pm - - - - - N 9 11 5 6 - - -
20/05:30pm - - - - - N 7 9 4 5 - - -
20/05:00pm - - - - - N 7 9 4 5 - - -
20/04:30pm - - - - - N 7 9 4 5 - - -
20/04:00pm - - - - - N 9 15 5 8 - - -
20/03:30pm - - - - - NNE 11 17 6 9 - - -
20/03:00pm - - - - - NNE 11 17 6 9 - - -
20/02:30pm - - - - - NW 9 13 5 7 - - -
20/02:00pm - - - - - WNW 2 7 1 4 - - -
20/01:30pm - - - - - W 9 11 5 6 - - -
20/01:00pm - - - - - W 9 15 5 8 - - -
20/12:30pm - - - - - W 11 13 6 7 - - -
20/12:00pm - - - - - WNW 11 17 6 9 - - -
20/11:30am - - - - - W 4 7 2 4 - - -
20/11:00am - - - - - W 9 13 5 7 - - -
20/10:30am - - - - - W 7 9 4 5 - - -
20/10:00am - - - - - WNW 11 13 6 7 - - -
20/09:30am - - - - - WNW 11 15 6 8 - - -
20/09:00am - - - - - WNW 13 19 7 10 - - -
20/08:30am - - - - - W 15 19 8 10 - - -
20/08:00am - - - - - W 13 15 7 8 - - -
20/07:30am - - - - - WNW 13 17 7 9 - - -
20/07:00am - - - - - W 13 17 7 9 - - -
20/06:30am - - - - - W 15 17 8 9 - - -
20/06:00am - - - - - WNW 17 20 9 11 - - -
20/05:30am - - - - - WNW 17 19 9 10 - - -
20/05:00am - - - - - WNW 13 17 7 9 - - -
20/04:30am - - - - - W 17 20 9 11 - - -
20/04:00am - - - - - W 17 19 9 10 - - -
20/03:30am - - - - - W 15 19 8 10 - - -
20/03:00am - - - - - W 19 22 10 12 - - -
20/02:30am - - - - - WNW 19 20 10 11 - - -
20/02:00am - - - - - WNW 22 24 12 13 - - -
20/01:30am - - - - - W 20 24 11 13 - - -
20/01:00am - - - - - WNW 20 24 11 13 - - -
20/12:30am - - - - - WNW 24 26 13 14 - - -
20/12:00am - - - - - WNW 19 22 10 12 - - -
 
Date/Time
EST
Temp
°C
App
Temp
°C
Dew
Point
°C
Rel
Hum
%
Delta-T
°C
Wind Press
QNH
hPa
Press
MSL
hPa
Rain since
9am
mm
Dir  Spd
km/h
Gust
km/h
Spd
kts
Gust
kts
19/11:30pm - - - - - NW 7 11 4 6 - - -
19/11:00pm - - - - - N 9 13 5 7 - - -
19/10:30pm - - - - - N 4 6 2 3 - - -
19/10:00pm - - - - - NNE 2 4 1 2 - - -
19/09:30pm - - - - - E 4 6 2 3 - - -
19/09:00pm - - - - - ENE 2 4 1 2 - - -
19/08:30pm - - - - - NNW 2 4 1 2 - - -
19/08:00pm - - - - - NNE 4 7 2 4 - - -
19/07:30pm - - - - - N 4 6 2 3 - - -
19/07:00pm - - - - - NNE 7 11 4 6 - - -
19/06:30pm - - - - - ENE 4 9 2 5 - - -
19/06:00pm - - - - - ENE 6 11 3 6 - - -
19/05:30pm - - - - - NE 7 17 4 9 - - -
19/05:00pm - - - - - ENE 11 19 6 10 - - -
19/04:30pm - - - - - ENE 11 19 6 10 - - -
19/04:00pm - - - - - ENE 17 20 9 11 - - -
19/03:30pm - - - - - ENE 17 20 9 11 - - -
19/03:00pm - - - - - E 19 22 10 12 - - -
19/02:30pm - - - - - ENE 17 19 9 10 - - -
19/02:00pm - - - - - ENE 17 19 9 10 - - -
19/01:30pm - - - - - ENE 19 20 10 11 - - -
19/01:00pm - - - - - W 9 13 5 7 - - -
19/12:30pm - - - - - W 9 11 5 6 - - -
19/12:00pm - - - - - WNW 9 9 5 5 - - -
19/11:30am - - - - - NW 9 11 5 6 - - -
19/11:00am - - - - - WNW 11 15 6 8 - - -
19/10:30am - - - - - WNW 13 17 7 9 - - -
19/10:00am - - - - - WNW 13 19 7 10 - - -
19/09:30am - - - - - WNW 17 20 9 11 - - -
19/09:00am - - - - - WNW 17 20 9 11 - - -
19/08:30am - - - - - W 15 20 8 11 - - -
19/08:00am - - - - - WNW 13 17 7 9 - - -
19/07:30am - - - - - WNW 11 19 6 10 - - -
19/07:00am - - - - - NW 9 15 5 8 - - -
19/06:30am - - - - - NW 9 13 5 7 - - -
19/06:00am - - - - - WNW 15 17 8 9 - - -
19/05:30am - - - - - WNW 19 20 10 11 - - -
19/05:00am - - - - - WNW 17 20 9 11 - - -
19/04:30am - - - - - W 17 20 9 11 - - -
19/04:00am - - - - - W 17 20 9 11 - - -
19/03:30am - - - - - W 17 20 9 11 - - -
19/03:00am - - - - - WNW 13 15 7 8 - - -
19/02:30am - - - - - WNW 9 11 5 6 - - -
19/02:00am - - - - - WNW 11 13 6 7 - - -
19/01:30am - - - - - W 11 13 6 7 - - -
19/01:00am - - - - - WNW 7 11 4 6 - - -
19/12:30am - - - - - W 9 11 5 6 - - -

Other formats

Comma delimited format used in spreadsheet applications
http://www.bom.gov.au/fwo/IDN60801/IDN60801.94769.axf

JavaScript Object Notation format (JSON) in row-major order
http://www.bom.gov.au/fwo/IDN60801/IDN60801.94769.json

Data quality

Most of these data are generated automatically and are frequently updated. Quality checks on data are not normally performed. It is possible for incorrect values to appear. Refer to information at About Latest Weather Observations and please check the disclaimer before using these data.